PROFILE

 METAR AND TAF INFORMATION
ADDS - METARS form results

(1513 UTC 20 June 2019)
http://aviationweather.gov/metar/data/
 
TAF UHPP 201339Z 2015/2121 18003G10MPS 9999 BKN011 OVC020CB TEMPO 2015/2023 0700 -SHRA FG VV003 FM202300 17003G12MPS 9999 BKN025CB TEMPO 2023/2115 3100 -SHRA BR BKN006 OVC020CB TEMPO 2115/2121 1000 BR VV003 

 AIRPORT MAP

 RUNWAY INFORMATION
Runway 12 Runway length 735 ft Runway width 50 ft
Runway elevation 0 ft Runway displaced threshold 0 ft Runway heading 118
Runway 30 Runway length 735 ft Runway width 50 ft
Runway elevation 0 ft Runway displaced threshold 0 ft Runway heading 298
Runway 16L Runway length 11155 ft Runway width 197 ft
Runway elevation 112 ft Runway displaced threshold 0 ft Runway heading 157
Runway 34R Runway length 11155 ft Runway width 197 ft
Runway elevation 131 ft Runway displaced threshold 0 ft Runway heading 337
Runway 16R Runway length 8235 ft Runway width 197 ft
Runway elevation 0 ft Runway displaced threshold 0 ft Runway heading 157
Runway 34L Runway length 8235 ft Runway width 197 ft
Runway elevation 0 ft Runway displaced threshold 0 ft Runway heading 337

 AIRPORT FREQUENCIES
Type ARSA Name PETROPAVLO Frequency 119.4 MHZ
Type TWR Name PETROPAVLO Frequency 118.1 MHZ

 AIRPORT NEAR NAVIGATION AIDS
Type NDB Name Petropavlovsk-Kamchatsky Frequency 535 KHZ